»·PEaware :: JBU161 CYYC-KSLC

JBU161 :: CYYC-KSLC

FLIGHT INFORMATION

Flight Status: Arrived
Operator:
JetBlue Airways
More flights by this operator :: More flights under this callsign
Pilot: Sean J. (16955)
Aircraft: AIRBUS A320
(A320)
More flights by this aircraft type
Origin: CYYC Calgary Intl
Canada
Destination: KSLC Salt Lake City Intl
United States
More flights between these airports :: More routes between these airports
Route: UBVAL Q927 SEKOM DBS NORDK6
File this flight plan on PilotEdge
Remarks: RMK / SIMBRIEF
Altitude:
(Current/Filed)
37,000ft
Speed:
(Current/Filed)
459kts
Departed: 29-Jun-19 11:43 AM
Arrived: 29-Jun-19 01:28 PM
Distance/Time
Traveled:
624nm/1:45
Distance/Time
To Go:
Arrived

Flight Plot

Page will automatically refresh every two minutes.

Flight plan parsing failed; only flown route is shown


Map Options




Map Legend


Flown Route
Filed Route
Departure Airport
Arrival Airport
Navaid (VOR, NDB)
Fix

Horizontal Profiles

Position Reports

Time Latitude Longitude Heading Altitude Ground
Speed
29-Jun-19 11:34 51.097064 -114.017012 179 3571ft 0kts
29-Jun-19 11:35 51.097064 -114.017012 179 3571ft 0kts
29-Jun-19 11:36 51.097064 -114.017012 179 3571ft 0kts
29-Jun-19 11:37 51.097063 -114.017012 179 3571ft 0kts
29-Jun-19 11:38 51.097062 -114.017012 179 3571ft 0kts
29-Jun-19 11:39 51.097062 -114.017012 179 3571ft 0kts
29-Jun-19 11:40 51.097061 -114.017012 179 3571ft 0kts
29-Jun-19 11:41 51.096981 -114.020111 274 3571ft 0kts
29-Jun-19 11:42 51.098133 -114.021377 359 3571ft 36kts
29-Jun-19 11:43 51.138236 -114.017021 14 4462ft 209kts
29-Jun-19 11:44 51.196599 -113.963195 65 7124ft 282kts
29-Jun-19 11:45 51.159426 -113.870649 178 10419ft 296kts
29-Jun-19 11:46 51.065705 -113.883672 185 12091ft 357kts
29-Jun-19 11:47 50.964704 -113.886041 184 14754ft 369kts
29-Jun-19 11:48 50.861254 -113.886047 184 17132ft 376kts
29-Jun-19 11:49 50.755412 -113.885606 184 19180ft 384kts
29-Jun-19 11:50 50.647388 -113.885105 184 21153ft 391kts
29-Jun-19 11:51 50.537695 -113.857776 175 22845ft 404kts
29-Jun-19 11:52 50.426794 -113.823688 175 24359ft 410kts
29-Jun-19 11:53 50.314347 -113.789479 176 25829ft 413kts
29-Jun-19 11:54 50.200166 -113.754948 176 27095ft 419kts
29-Jun-19 11:54 50.104381 -113.726103 176 28096ft 423kts
29-Jun-19 11:56 49.968497 -113.685363 176 29448ft 427kts
29-Jun-19 11:57 49.851069 -113.650360 176 30336ft 433kts
29-Jun-19 11:57 49.752420 -113.621068 176 31236ft 432kts
29-Jun-19 11:58 49.634329 -113.586261 176 32423ft 430kts
29-Jun-19 12:00 49.497056 -113.548876 176 33796ft 429kts
29-Jun-19 12:00 49.399534 -113.522198 176 34762ft 429kts
29-Jun-19 12:01 49.281454 -113.489958 175 35906ft 431kts
29-Jun-19 12:02 49.163286 -113.457806 175 36988ft 433kts
29-Jun-19 12:03 49.044995 -113.425726 175 37077ft 430kts
29-Jun-19 12:04 48.927604 -113.394074 175 37084ft 428kts
29-Jun-19 12:05 48.809976 -113.362534 175 37090ft 428kts
29-Jun-19 12:06 48.693206 -113.331365 175 37096ft 426kts
29-Jun-19 12:07 48.576069 -113.300261 175 37104ft 426kts
29-Jun-19 12:08 48.459580 -113.269470 175 37102ft 425kts
29-Jun-19 12:09 48.342725 -113.238729 175 37103ft 425kts
29-Jun-19 12:10 48.226289 -113.208235 175 37109ft 424kts
29-Jun-19 12:11 48.109881 -113.177902 176 37109ft 424kts
29-Jun-19 12:12 47.993845 -113.147802 176 37110ft 424kts
29-Jun-19 12:13 47.878589 -113.118032 176 37111ft 419kts
29-Jun-19 12:14 47.764076 -113.088613 177 37112ft 418kts
29-Jun-19 12:15 47.649503 -113.059294 177 37112ft 417kts
29-Jun-19 12:16 47.535050 -113.030136 177 37113ft 417kts
29-Jun-19 12:17 47.420720 -113.001146 177 37113ft 416kts
29-Jun-19 12:18 47.306786 -112.972378 177 37113ft 414kts
29-Jun-19 12:19 47.193242 -112.943836 177 37113ft 413kts
29-Jun-19 12:20 47.080195 -112.915542 178 37113ft 412kts
29-Jun-19 12:21 46.967195 -112.887387 178 37113ft 411kts
29-Jun-19 12:22 46.854447 -112.859407 178 37111ft 410kts
29-Jun-19 12:23 46.741921 -112.831604 178 37141ft 409kts
29-Jun-19 12:24 46.629684 -112.803991 179 37154ft 408kts
29-Jun-19 12:25 46.518003 -112.776634 179 37145ft 406kts
29-Jun-19 12:26 46.406533 -112.749444 179 37153ft 405kts
29-Jun-19 12:27 46.295848 -112.722557 179 37166ft 404kts
29-Jun-19 12:28 46.185053 -112.695752 179 37179ft 403kts
29-Jun-19 12:29 46.074550 -112.669119 180 37191ft 401kts
29-Jun-19 12:30 45.964626 -112.642702 180 37196ft 400kts
29-Jun-19 12:31 45.854751 -112.616481 180 37197ft 399kts
29-Jun-19 12:32 45.745295 -112.590425 180 37191ft 399kts
29-Jun-19 12:33 45.635622 -112.564416 180 37181ft 399kts
29-Jun-19 12:34 45.525971 -112.538516 180 37175ft 399kts
29-Jun-19 12:35 45.415847 -112.512604 181 37167ft 401kts
29-Jun-19 12:36 45.306035 -112.486875 180 37161ft 401kts
29-Jun-19 12:37 45.195932 -112.461165 181 37160ft 401kts
29-Jun-19 12:38 45.085566 -112.435500 181 37164ft 402kts
29-Jun-19 12:39 44.974895 -112.409876 181 37167ft 403kts
29-Jun-19 12:40 44.864223 -112.384331 181 37171ft 403kts
29-Jun-19 12:41 44.753451 -112.358879 181 37175ft 404kts
29-Jun-19 12:42 44.642290 -112.333433 181 37180ft 403kts
29-Jun-19 12:43 44.531257 -112.308116 181 37183ft 405kts
29-Jun-19 12:44 44.420156 -112.282878 181 37186ft 405kts
29-Jun-19 12:45 44.309057 -112.257742 181 37189ft 404kts
29-Jun-19 12:46 44.197597 -112.232616 181 37193ft 406kts
29-Jun-19 12:47 44.085829 -112.207368 180 37201ft 407kts
29-Jun-19 12:48 43.974442 -112.179259 180 37200ft 408kts
29-Jun-19 12:49 43.862538 -112.150545 179 37200ft 408kts
29-Jun-19 12:50 43.751151 -112.121889 179 37198ft 408kts
29-Jun-19 12:51 43.639366 -112.093184 179 37199ft 409kts
29-Jun-19 12:52 43.527386 -112.064498 179 37199ft 409kts
29-Jun-19 12:53 43.415393 -112.035920 179 37199ft 409kts
29-Jun-19 12:54 43.303367 -112.007434 179 37199ft 410kts
29-Jun-19 12:55 43.190539 -111.978891 178 37198ft 414kts
29-Jun-19 12:56 43.082727 -111.951530 179 36217ft 377kts
29-Jun-19 12:57 42.979039 -111.925624 179 35218ft 379kts
29-Jun-19 12:58 42.874902 -111.899577 178 34221ft 382kts
29-Jun-19 12:59 42.769733 -111.873337 178 33221ft 386kts
29-Jun-19 13:00 42.664515 -111.863388 191 32222ft 376kts
29-Jun-19 13:01 42.560849 -111.880030 193 31222ft 375kts
29-Jun-19 13:02 42.455774 -111.897801 192 30038ft 381kts
29-Jun-19 13:03 42.350377 -111.915738 192 28542ft 385kts
29-Jun-19 13:04 42.243372 -111.933929 192 26872ft 384kts
29-Jun-19 13:05 42.138474 -111.951700 192 25342ft 376kts
29-Jun-19 13:06 42.035770 -111.969067 192 23840ft 368kts
29-Jun-19 13:07 41.935193 -111.986028 191 22544ft 361kts
29-Jun-19 13:08 41.836189 -112.002661 191 21308ft 356kts
29-Jun-19 13:09 41.738115 -112.018431 190 20204ft 351kts
29-Jun-19 13:10 41.641493 -112.033514 190 19165ft 347kts
29-Jun-19 13:11 41.546246 -112.048470 190 18166ft 343kts
29-Jun-19 13:12 41.452098 -112.065873 192 17166ft 340kts
29-Jun-19 13:13 41.358681 -112.086117 192 16162ft 337kts
29-Jun-19 13:14 41.266278 -112.106111 192 15169ft 336kts
29-Jun-19 13:15 41.173965 -112.126010 192 14359ft 333kts
29-Jun-19 13:16 41.082210 -112.142912 184 13230ft 334kts
29-Jun-19 13:17 40.990006 -112.128312 174 12089ft 333kts
29-Jun-19 13:18 40.898342 -112.109444 176 11058ft 332kts
29-Jun-19 13:19 40.806313 -112.098451 177 10984ft 332kts
29-Jun-19 13:20 40.721953 -112.088499 177 10506ft 274kts
29-Jun-19 13:21 40.646591 -112.079688 176 10200ft 269kts
29-Jun-19 13:22 40.573816 -112.068233 156 9094ft 259kts
29-Jun-19 13:23 40.559327 -111.984436 60 8601ft 265kts
29-Jun-19 13:24 40.626151 -111.956488 355 7504ft 265kts
29-Jun-19 13:25 40.698556 -111.964253 354 6132ft 258kts
29-Jun-19 13:26 40.761246 -111.971028 352 4541ft 170kts
29-Jun-19 13:27 40.791925 -111.975422 315 4241ft 18kts
29-Jun-19 13:28 40.794933 -111.977592 350 4241ft 27kts
29-Jun-19 13:29 40.801514 -111.980418 351 4241ft 30kts
29-Jun-19 13:30 40.802396 -111.983252 314 4241ft 0kts
29-Jun-19 13:31 40.802396 -111.983252 314 4241ft 0kts

Navigation Log

Ident Type
Flight plan parsing failed, navigation log unavailable